createdAt,value
2017-11-17T00:01:36.703Z,88.50
2017-11-17T00:04:04.301Z,88.50
2017-11-17T00:06:32.619Z,88.80
2017-11-17T00:09:00.302Z,88.80
2017-11-17T00:11:27.873Z,88.70
2017-11-17T00:13:55.430Z,88.90
2017-11-17T00:16:23.016Z,88.90
2017-11-17T00:18:50.590Z,88.80
2017-11-17T00:21:18.936Z,89.00
2017-11-17T00:23:46.503Z,89.60
2017-11-17T00:26:14.087Z,88.60
2017-11-17T00:28:42.430Z,88.60
2017-11-17T00:31:10.000Z,88.60
2017-11-17T00:33:37.563Z,88.50
2017-11-17T00:36:05.114Z,88.70
2017-11-17T00:38:32.663Z,89.30
2017-11-17T00:41:00.317Z,88.80
2017-11-17T00:43:27.867Z,88.60
2017-11-17T00:45:55.445Z,88.80
2017-11-17T00:48:22.994Z,88.40
2017-11-17T00:50:50.557Z,88.60
2017-11-17T00:53:18.119Z,88.80
2017-11-17T00:55:45.686Z,88.60
2017-11-17T00:58:13.251Z,88.70
2017-11-17T01:00:40.826Z,88.80
2017-11-17T01:03:08.378Z,88.60
2017-11-17T01:05:35.962Z,88.90
2017-11-17T01:08:04.314Z,89.30
2017-11-17T01:10:31.901Z,89.30
2017-11-17T01:12:59.457Z,89.00
2017-11-17T01:15:27.766Z,89.40
2017-11-17T01:17:55.332Z,89.30
2017-11-17T01:20:22.898Z,89.10
2017-11-17T01:22:50.466Z,89.40
2017-11-17T01:25:18.056Z,89.00
2017-11-17T01:27:45.635Z,89.00
2017-11-17T01:30:13.980Z,88.70
2017-11-17T01:32:41.535Z,89.40
2017-11-17T01:35:09.097Z,88.60
2017-11-17T01:37:36.695Z,88.60
2017-11-17T01:40:05.025Z,89.60
2017-11-17T01:42:32.610Z,88.80
2017-11-17T01:45:00.184Z,88.50
2017-11-17T01:47:27.747Z,88.70
2017-11-17T01:49:56.085Z,88.80
2017-11-17T01:52:23.646Z,88.60
2017-11-17T01:54:51.185Z,88.90
2017-11-17T01:57:18.755Z,88.80
2017-11-17T01:59:46.321Z,88.80
2017-11-17T02:02:19.972Z,88.70
2017-11-17T02:04:48.320Z,89.10
2017-11-17T02:07:15.904Z,89.10
2017-11-17T02:09:43.450Z,88.40
2017-11-17T02:12:11.001Z,88.20
2017-11-17T02:14:38.588Z,88.60
2017-11-17T02:17:06.131Z,88.80
2017-11-17T02:19:34.461Z,89.60
2017-11-17T02:22:02.004Z,89.60
2017-11-17T02:24:30.331Z,90.10
2017-11-17T02:26:57.900Z,90.10
2017-11-17T02:29:25.478Z,90.20
2017-11-17T02:31:53.026Z,89.70
2017-11-17T02:34:20.589Z,90.00
2017-11-17T02:36:48.193Z,90.30
2017-11-17T02:39:15.768Z,90.30
2017-11-17T02:41:43.385Z,90.20
2017-11-17T02:44:11.748Z,90.00
2017-11-17T02:46:39.331Z,90.00
2017-11-17T02:49:07.674Z,90.10
2017-11-17T02:51:35.229Z,90.10
2017-11-17T02:54:02.813Z,89.90
2017-11-17T02:56:30.402Z,89.70
2017-11-17T02:58:58.728Z,89.80
2017-11-17T03:01:26.325Z,89.80
2017-11-17T03:03:54.658Z,89.70
2017-11-17T03:06:22.218Z,89.70
2017-11-17T03:08:49.782Z,89.80
2017-11-17T03:11:17.346Z,89.80
2017-11-17T03:13:44.895Z,89.60
2017-11-17T03:16:12.436Z,89.60
2017-11-17T03:18:40.016Z,89.60
2017-11-17T03:21:07.559Z,88.90
2017-11-17T03:23:35.125Z,88.90
2017-11-17T03:26:02.705Z,89.20
2017-11-17T03:28:30.323Z,89.10
2017-11-17T03:30:57.916Z,89.40
2017-11-17T03:33:25.481Z,89.10
2017-11-17T03:35:53.028Z,89.80
2017-11-17T03:38:20.565Z,89.60
2017-11-17T03:40:48.158Z,88.90
2017-11-17T03:43:15.722Z,88.80
2017-11-17T03:45:43.293Z,89.30
2017-11-17T03:48:10.845Z,89.40
2017-11-17T03:50:38.422Z,89.20
2017-11-17T03:53:05.983Z,89.10
2017-11-17T03:55:33.590Z,89.60
2017-11-17T03:58:01.154Z,89.30
2017-11-17T04:00:28.708Z,89.00
2017-11-17T04:02:57.510Z,89.10
2017-11-17T04:05:25.082Z,89.50
2017-11-17T04:07:52.743Z,89.60
2017-11-17T04:10:20.291Z,89.90
2017-11-17T04:12:47.852Z,90.00
2017-11-17T04:15:15.454Z,90.00
2017-11-17T04:17:43.082Z,90.10
2017-11-17T04:20:10.663Z,90.10
2017-11-17T04:22:38.241Z,90.10
2017-11-17T04:25:05.842Z,90.20
2017-11-17T04:27:33.427Z,90.30
2017-11-17T04:30:00.988Z,90.10
2017-11-17T04:32:28.549Z,90.40
2017-11-17T04:34:56.131Z,90.60
2017-11-17T04:37:23.681Z,90.50
2017-11-17T04:39:51.237Z,90.40
2017-11-17T04:42:18.793Z,90.60
2017-11-17T04:44:46.337Z,90.70
2017-11-17T04:47:13.907Z,90.70
2017-11-17T04:49:41.468Z,90.70
2017-11-17T04:52:09.028Z,90.80
2017-11-17T04:54:36.583Z,90.70
2017-11-17T04:57:04.154Z,90.70
2017-11-17T04:59:31.714Z,90.80
2017-11-17T05:01:59.279Z,90.60
2017-11-17T05:04:26.865Z,90.60
2017-11-17T05:06:54.421Z,90.90
2017-11-17T05:09:22.764Z,90.70
2017-11-17T05:11:50.430Z,90.60
2017-11-17T05:14:17.996Z,90.50
2017-11-17T05:16:45.578Z,90.60
2017-11-17T05:19:13.311Z,90.60
2017-11-17T05:21:40.978Z,90.60
2017-11-17T05:24:08.545Z,90.40
2017-11-17T05:26:36.113Z,90.60
2017-11-17T05:29:03.690Z,90.90
2017-11-17T05:31:31.232Z,90.80
2017-11-17T05:33:58.801Z,90.70
2017-11-17T05:36:26.359Z,90.80
2017-11-17T05:38:53.929Z,90.90
2017-11-17T05:41:21.498Z,90.80
2017-11-17T05:43:49.058Z,90.90
2017-11-17T05:46:16.647Z,91.00
2017-11-17T05:48:44.218Z,91.10
2017-11-17T05:51:11.774Z,91.00
2017-11-17T05:53:39.327Z,91.20
2017-11-17T05:56:06.915Z,91.50
2017-11-17T05:58:34.510Z,91.50
2017-11-17T06:01:02.108Z,91.40
2017-11-17T06:03:30.436Z,91.70
2017-11-17T06:05:57.994Z,91.60
2017-11-17T06:08:25.553Z,91.70
2017-11-17T06:10:53.113Z,91.70
2017-11-17T06:13:20.687Z,91.70
2017-11-17T06:15:48.247Z,91.60
2017-11-17T06:18:15.813Z,91.80
2017-11-17T06:20:43.366Z,91.90
2017-11-17T06:23:10.927Z,91.70
2017-11-17T06:25:38.549Z,91.90
2017-11-17T06:28:06.107Z,91.90
2017-11-17T06:30:33.671Z,91.90
2017-11-17T06:33:01.228Z,91.90
2017-11-17T06:35:28.789Z,92.00
2017-11-17T06:37:57.222Z,92.00
2017-11-17T06:40:25.611Z,92.50
2017-11-17T06:42:53.943Z,92.50
2017-11-17T06:45:21.508Z,92.50
2017-11-17T06:47:49.072Z,92.60
2017-11-17T06:50:16.648Z,92.80
2017-11-17T06:52:44.217Z,92.70
2017-11-17T06:55:12.562Z,92.70
2017-11-17T06:57:40.148Z,92.70
2017-11-17T07:00:07.737Z,92.30
2017-11-17T07:02:36.065Z,92.70
2017-11-17T07:05:03.653Z,92.70
2017-11-17T07:07:31.209Z,92.50
2017-11-17T07:09:58.788Z,92.50
2017-11-17T07:12:27.107Z,92.10
2017-11-17T07:14:54.661Z,92.10
2017-11-17T07:17:22.220Z,92.10
2017-11-17T07:19:49.810Z,92.20
2017-11-17T07:22:17.590Z,92.30
2017-11-17T07:24:45.141Z,91.90
2017-11-17T07:27:12.711Z,91.90
2017-11-17T07:29:40.402Z,92.00
2017-11-17T07:32:08.759Z,91.80
2017-11-17T07:34:36.320Z,91.80
2017-11-17T07:37:03.896Z,91.80
2017-11-17T07:39:32.217Z,91.60
2017-11-17T07:41:59.764Z,91.60
2017-11-17T07:44:27.330Z,91.60
2017-11-17T07:46:54.906Z,91.60
2017-11-17T07:49:22.466Z,91.80
2017-11-17T07:51:50.050Z,91.60
2017-11-17T07:54:17.622Z,91.50
2017-11-17T07:56:45.942Z,91.60
2017-11-17T07:59:13.768Z,91.60
2017-11-17T08:01:41.339Z,91.80
2017-11-17T08:04:08.916Z,91.80
2017-11-17T08:06:36.493Z,91.90
2017-11-17T08:09:04.051Z,91.60
2017-11-17T08:11:31.614Z,91.60
2017-11-17T08:13:59.188Z,91.50
2017-11-17T08:16:26.748Z,91.40
2017-11-17T08:18:54.333Z,91.60
2017-11-17T08:21:21.901Z,91.40
2017-11-17T08:23:49.484Z,91.70
2017-11-17T08:26:17.066Z,92.00
2017-11-17T08:28:44.660Z,91.40
2017-11-17T08:31:12.205Z,91.30
2017-11-17T08:33:39.773Z,91.30
2017-11-17T08:36:07.345Z,91.30
2017-11-17T08:38:34.936Z,91.50
2017-11-17T08:41:03.266Z,91.00
2017-11-17T08:43:30.811Z,91.00
2017-11-17T08:45:58.371Z,90.80
2017-11-17T08:48:25.960Z,91.10
2017-11-17T08:50:53.534Z,91.00
2017-11-17T08:53:21.109Z,91.10
2017-11-17T08:55:49.468Z,91.10
2017-11-17T08:58:17.042Z,91.10
2017-11-17T09:00:44.613Z,90.80
2017-11-17T09:03:12.968Z,90.80
2017-11-17T09:05:40.546Z,90.80
2017-11-17T09:08:08.864Z,90.70
2017-11-17T09:10:36.448Z,90.70
2017-11-17T09:13:04.004Z,90.70
2017-11-17T09:15:31.563Z,90.50
2017-11-17T09:17:59.131Z,90.30
2017-11-17T09:20:26.693Z,90.20
2017-11-17T09:22:54.272Z,90.30
2017-11-17T09:25:21.844Z,89.90
2017-11-17T09:27:50.191Z,90.10
2017-11-17T09:30:17.767Z,90.10
2017-11-17T09:32:45.328Z,90.30
2017-11-17T09:35:13.722Z,90.10
2017-11-17T09:37:41.902Z,90.30
2017-11-17T09:40:10.220Z,90.40
2017-11-17T09:42:37.803Z,90.40
2017-11-17T09:45:06.987Z,90.40
2017-11-17T09:47:34.568Z,90.30
2017-11-17T09:50:02.139Z,90.20
2017-11-17T09:52:29.710Z,90.00
2017-11-17T09:54:57.265Z,90.20
2017-11-17T09:57:24.828Z,90.40
2017-11-17T09:59:52.381Z,90.50
2017-11-17T10:02:19.947Z,90.50
2017-11-17T10:04:47.523Z,90.40
2017-11-17T10:07:15.863Z,90.40
2017-11-17T10:09:43.416Z,90.40
2017-11-17T10:12:10.978Z,90.40
2017-11-17T10:14:38.530Z,90.40
2017-11-17T10:17:06.110Z,90.70
2017-11-17T10:19:33.707Z,90.60
2017-11-17T10:22:02.062Z,89.80
2017-11-17T10:24:29.634Z,89.70
2017-11-17T10:26:57.963Z,90.40
2017-11-17T10:29:25.519Z,90.40
2017-11-17T10:31:53.077Z,90.30
2017-11-17T10:34:20.657Z,90.40
2017-11-17T10:36:48.242Z,90.20
2017-11-17T10:39:15.836Z,90.30
2017-11-17T10:41:43.407Z,90.00
2017-11-17T10:44:10.975Z,90.10
2017-11-17T10:46:38.546Z,89.90
2017-11-17T10:49:06.101Z,89.30
2017-11-17T10:51:33.663Z,89.30
2017-11-17T10:54:02.008Z,87.90
2017-11-17T10:56:30.363Z,87.80
2017-11-17T10:59:04.701Z,89.00
2017-11-17T11:01:33.071Z,89.90
2017-11-17T11:04:00.629Z,89.90
2017-11-17T11:06:28.969Z,88.80
2017-11-17T11:08:56.568Z,88.80
2017-11-17T11:11:30.514Z,89.20
2017-11-17T11:13:58.089Z,88.40
2017-11-17T11:16:25.707Z,88.20
2017-11-17T11:18:54.045Z,89.80
2017-11-17T11:21:21.602Z,89.80
2017-11-17T11:24:12.721Z,87.80
2017-11-17T11:26:40.316Z,87.80
2017-11-17T11:29:07.865Z,87.90
2017-11-17T11:31:35.473Z,87.10
2017-11-17T11:34:03.039Z,87.90
2017-11-17T11:36:30.628Z,87.90
2017-11-17T11:38:58.969Z,85.40
2017-11-17T11:41:26.531Z,85.50
2017-11-17T11:43:54.101Z,87.00
2017-11-17T11:46:21.664Z,87.10
2017-11-17T11:48:50.001Z,86.80
2017-11-17T11:51:17.581Z,86.80
2017-11-17T11:53:45.156Z,87.10
2017-11-17T11:56:12.751Z,87.50
2017-11-17T11:58:41.103Z,86.90
2017-11-17T12:01:08.714Z,87.00
2017-11-17T12:03:37.766Z,85.80
2017-11-17T12:06:05.318Z,85.50
2017-11-17T12:08:32.885Z,84.90
2017-11-17T12:11:03.660Z,85.50
2017-11-17T12:13:32.010Z,84.90
2017-11-17T12:15:59.572Z,84.90
2017-11-17T12:18:27.171Z,84.30
2017-11-17T12:20:54.731Z,84.10
2017-11-17T12:23:22.319Z,84.40
2017-11-17T12:25:49.893Z,84.90
2017-11-17T12:28:17.483Z,85.20
2017-11-17T12:30:46.020Z,84.30
2017-11-17T12:33:13.589Z,84.50
2017-11-17T12:35:41.148Z,85.50
2017-11-17T12:38:08.690Z,84.70
2017-11-17T12:40:36.257Z,83.90
2017-11-17T12:43:03.812Z,85.30
2017-11-17T12:45:31.426Z,84.90
2017-11-17T12:47:59.106Z,84.50
2017-11-17T12:50:27.448Z,84.00
2017-11-17T12:52:55.012Z,84.00
2017-11-17T12:55:22.592Z,84.50
2017-11-17T12:57:50.943Z,85.20
2017-11-17T13:00:18.509Z,85.10
2017-11-17T13:02:46.855Z,84.40
2017-11-17T13:05:14.428Z,84.40
2017-11-17T13:07:41.991Z,85.30
2017-11-17T13:10:09.542Z,85.70
2017-11-17T13:12:37.119Z,85.30
2017-11-17T13:15:04.675Z,86.00
2017-11-17T13:17:32.277Z,85.10
2017-11-17T13:19:59.836Z,84.40
2017-11-17T13:22:28.239Z,84.50
2017-11-17T13:24:56.582Z,84.40
2017-11-17T13:27:24.187Z,84.40
2017-11-17T13:29:51.741Z,85.20
2017-11-17T13:32:19.312Z,84.70
2017-11-17T13:34:47.047Z,84.80
2017-11-17T13:37:15.366Z,84.20
2017-11-17T13:39:42.982Z,84.20
2017-11-17T13:42:10.575Z,84.20
2017-11-17T13:44:38.179Z,84.70
2017-11-17T13:47:05.754Z,84.70
2017-11-17T13:49:33.337Z,84.20
2017-11-17T13:52:01.689Z,85.30
2017-11-17T13:54:29.255Z,85.30
2017-11-17T13:56:56.811Z,85.60
2017-11-17T13:59:24.364Z,86.30
2017-11-17T14:01:51.950Z,85.40
2017-11-17T14:04:20.260Z,85.80
2017-11-17T14:06:47.828Z,85.80
2017-11-17T14:09:15.392Z,86.30
2017-11-17T14:11:42.969Z,85.90
2017-11-17T14:14:10.531Z,85.70
2017-11-17T14:16:38.100Z,85.80
2017-11-17T14:19:05.667Z,85.60
2017-11-17T14:21:33.257Z,85.90
2017-11-17T14:24:01.601Z,84.90
2017-11-17T14:26:29.190Z,84.90
2017-11-17T14:28:57.519Z,86.10
2017-11-17T14:31:25.087Z,86.10
2017-11-17T14:33:52.655Z,86.50
2017-11-17T14:36:20.233Z,86.30
2017-11-17T14:38:47.801Z,86.80
2017-11-17T14:41:15.360Z,87.60
2017-11-17T14:43:42.922Z,87.20
2017-11-17T14:46:10.514Z,88.10
2017-11-17T14:48:38.087Z,87.20
2017-11-17T14:51:05.662Z,87.10
2017-11-17T14:53:33.233Z,86.70
2017-11-17T14:56:00.789Z,87.80
2017-11-17T14:58:29.123Z,87.40
2017-11-17T15:00:57.457Z,87.10
2017-11-17T15:03:25.055Z,87.10
2017-11-17T15:05:58.689Z,88.10
2017-11-17T15:08:32.524Z,88.20
2017-11-17T15:11:03.878Z,88.00
2017-11-17T15:13:31.455Z,88.10
2017-11-17T15:15:59.002Z,88.10
2017-11-17T15:18:26.564Z,88.10
2017-11-17T15:20:54.139Z,88.20
2017-11-17T15:23:21.702Z,88.00
2017-11-17T15:25:49.285Z,87.70
2017-11-17T15:28:16.845Z,87.90
2017-11-17T15:30:44.442Z,88.60
2017-11-17T15:33:12.073Z,88.80
2017-11-17T15:35:39.663Z,89.40
2017-11-17T15:38:07.264Z,89.00
2017-11-17T15:40:34.849Z,89.00
2017-11-17T15:43:02.446Z,88.90
2017-11-17T15:45:30.836Z,88.70
2017-11-17T15:47:58.406Z,88.70
2017-11-17T15:50:25.994Z,88.90
2017-11-17T15:52:53.578Z,89.20
2017-11-17T15:55:21.165Z,89.20
2017-11-17T15:57:49.482Z,89.70
2017-11-17T16:00:17.051Z,89.70
2017-11-17T16:02:44.599Z,89.50
2017-11-17T16:05:12.170Z,89.50
2017-11-17T16:07:39.823Z,89.40
2017-11-17T16:10:07.423Z,89.50
2017-11-17T16:12:34.978Z,89.60
2017-11-17T16:15:02.537Z,89.50
2017-11-17T16:17:30.123Z,89.50
2017-11-17T16:19:58.500Z,90.30
2017-11-17T16:22:26.083Z,90.30
2017-11-17T16:24:53.730Z,90.30
2017-11-17T16:27:24.538Z,90.40
2017-11-17T16:29:52.168Z,90.40
2017-11-17T16:32:19.744Z,90.30
2017-11-17T16:34:47.328Z,90.30
2017-11-17T16:37:14.893Z,90.30
2017-11-17T16:39:42.469Z,90.30
2017-11-17T16:42:10.892Z,90.50
2017-11-17T16:44:38.491Z,90.50
2017-11-17T16:47:06.101Z,90.50
2017-11-17T16:49:33.662Z,90.40
2017-11-17T16:52:01.287Z,90.30
2017-11-17T16:54:28.897Z,90.40
2017-11-17T16:56:56.488Z,90.50
2017-11-17T16:59:24.049Z,90.50
2017-11-17T17:01:51.973Z,90.30
2017-11-17T17:04:19.523Z,90.40
2017-11-17T17:06:47.148Z,90.30
2017-11-17T17:09:15.692Z,90.30
2017-11-17T17:11:43.266Z,90.40
2017-11-17T17:14:11.623Z,90.50
2017-11-17T17:16:39.206Z,90.50
2017-11-17T17:19:07.591Z,90.50
2017-11-17T17:21:35.942Z,90.50
2017-11-17T17:24:04.473Z,90.50
2017-11-17T17:26:32.075Z,90.60
2017-11-17T17:28:59.666Z,90.70
2017-11-17T17:31:27.258Z,90.30
2017-11-17T17:33:55.622Z,90.10
2017-11-17T17:36:23.963Z,90.30
2017-11-17T17:38:51.530Z,90.30
2017-11-17T17:41:19.115Z,90.40
2017-11-17T17:43:47.511Z,90.50
2017-11-17T17:46:15.087Z,90.50
2017-11-17T17:48:42.679Z,90.60
2017-11-17T17:51:10.257Z,90.60
2017-11-17T17:53:37.845Z,90.60
2017-11-17T17:56:06.197Z,90.60
2017-11-17T17:58:33.840Z,90.60
2017-11-17T18:01:01.550Z,90.60
2017-11-17T18:03:29.166Z,90.70
2017-11-17T18:05:56.791Z,90.80
2017-11-17T18:08:24.427Z,90.70
2017-11-17T18:10:53.042Z,90.60
2017-11-17T18:13:20.707Z,90.60
2017-11-17T18:15:48.898Z,90.50
2017-11-17T18:18:16.499Z,90.70
2017-11-17T18:20:44.125Z,90.70
2017-11-17T18:23:11.936Z,90.80
2017-11-17T18:25:39.562Z,91.10
2017-11-17T18:28:07.235Z,91.60
2017-11-17T18:30:34.809Z,91.00
2017-11-17T18:33:02.654Z,91.00
2017-11-17T18:35:30.560Z,90.90
2017-11-17T18:37:59.424Z,91.10
2017-11-17T18:40:27.085Z,91.10
2017-11-17T18:42:55.513Z,91.30
2017-11-17T18:45:23.062Z,91.30
2017-11-17T18:47:51.627Z,91.10
2017-11-17T18:50:19.844Z,91.10
2017-11-17T18:52:48.636Z,91.10
2017-11-17T18:55:16.237Z,91.10
2017-11-17T18:57:43.830Z,91.10
2017-11-17T19:00:12.337Z,91.30
2017-11-17T19:02:40.467Z,91.30
2017-11-17T19:05:08.480Z,91.30
2017-11-17T19:07:36.218Z,91.40
2017-11-17T19:10:03.962Z,91.50
2017-11-17T19:12:32.677Z,91.80
2017-11-17T19:15:00.619Z,91.80
2017-11-17T19:17:29.189Z,91.80
2017-11-17T19:19:56.768Z,91.80
2017-11-17T19:22:24.348Z,91.90
2017-11-17T19:24:52.706Z,92.30
2017-11-17T19:27:21.251Z,92.00
2017-11-17T19:29:49.209Z,92.10
2017-11-17T19:32:16.832Z,91.90
2017-11-17T19:34:44.417Z,91.70
2017-11-17T19:37:12.921Z,91.50
2017-11-17T19:39:40.541Z,91.50
2017-11-17T19:42:08.164Z,91.50
2017-11-17T19:44:35.882Z,91.60
2017-11-17T19:47:04.261Z,91.40
2017-11-17T19:49:32.656Z,91.30
2017-11-17T19:52:00.371Z,91.30
2017-11-17T19:54:27.969Z,91.40
2017-11-17T19:56:56.320Z,91.30
2017-11-17T19:59:23.927Z,91.30
2017-11-17T20:01:52.914Z,91.50
2017-11-17T20:04:20.495Z,91.50
2017-11-17T20:06:48.053Z,91.90
2017-11-17T20:09:16.405Z,91.40
2017-11-17T20:11:43.969Z,91.50
2017-11-17T20:14:11.530Z,91.40
2017-11-17T20:16:39.158Z,91.40
2017-11-17T20:19:06.890Z,91.40
2017-11-17T20:21:34.498Z,91.30
2017-11-17T20:24:02.119Z,91.50
2017-11-17T20:26:32.044Z,91.60
2017-11-17T20:28:59.718Z,91.60
2017-11-17T20:31:28.326Z,91.50
2017-11-17T20:33:56.007Z,91.40
2017-11-17T20:36:23.576Z,91.30
2017-11-17T20:38:51.149Z,91.40
2017-11-17T20:41:19.590Z,91.10
2017-11-17T20:43:47.256Z,91.10
2017-11-17T20:46:14.869Z,91.10
2017-11-17T20:48:42.445Z,91.20
2017-11-17T20:51:10.372Z,91.30
2017-11-17T20:53:38.068Z,91.50
2017-11-17T20:56:05.682Z,91.70
2017-11-17T20:58:33.275Z,91.70
2017-11-17T21:01:01.608Z,91.70
2017-11-17T21:03:29.478Z,91.70
2017-11-17T21:05:57.322Z,91.70
2017-11-17T21:08:24.913Z,91.60
2017-11-17T21:10:52.472Z,91.60
2017-11-17T21:13:20.182Z,91.60
2017-11-17T21:15:48.081Z,91.50
2017-11-17T21:18:15.711Z,91.40
2017-11-17T21:20:44.052Z,91.60
2017-11-17T21:23:11.601Z,91.60
2017-11-17T21:25:40.483Z,91.50
2017-11-17T21:28:08.304Z,91.60
2017-11-17T21:30:36.768Z,91.60
2017-11-17T21:33:05.129Z,91.80
2017-11-17T21:35:32.713Z,91.70
2017-11-17T21:38:01.068Z,91.80
2017-11-17T21:40:29.174Z,91.80
2017-11-17T21:42:56.943Z,91.80
2017-11-17T21:45:24.604Z,91.90
2017-11-17T21:47:52.203Z,91.70
2017-11-17T21:50:20.145Z,91.80
2017-11-17T21:52:48.379Z,92.00
2017-11-17T21:55:16.008Z,92.10
2017-11-17T21:57:43.578Z,92.10
2017-11-17T22:00:11.183Z,92.20
2017-11-17T22:02:39.929Z,92.00
2017-11-17T22:05:09.302Z,91.90
2017-11-17T22:07:36.895Z,92.00
2017-11-17T22:10:04.481Z,92.20
2017-11-17T22:12:32.114Z,92.10
2017-11-17T22:14:59.679Z,91.90
2017-11-17T22:17:27.249Z,91.60
2017-11-17T22:19:54.863Z,91.70
2017-11-17T22:22:22.456Z,91.70
2017-11-17T22:24:50.040Z,91.80
2017-11-17T22:27:17.603Z,91.80
2017-11-17T22:29:45.167Z,91.80
2017-11-17T22:32:12.753Z,91.80
2017-11-17T22:34:41.093Z,91.70
2017-11-17T22:37:08.655Z,91.70
2017-11-17T22:39:36.220Z,91.80
2017-11-17T22:42:03.789Z,91.60
2017-11-17T22:44:31.363Z,91.40
2017-11-17T22:46:59.793Z,91.60
2017-11-17T22:49:27.401Z,91.60
2017-11-17T22:51:54.979Z,91.50
2017-11-17T22:54:23.324Z,91.70
2017-11-17T22:56:50.907Z,91.70
2017-11-17T22:59:19.244Z,91.70
2017-11-17T23:01:46.818Z,91.60
2017-11-17T23:04:14.399Z,91.50
2017-11-17T23:06:42.731Z,91.80
2017-11-17T23:09:10.323Z,91.50
2017-11-17T23:11:37.916Z,91.40
2017-11-17T23:14:05.493Z,91.30
2017-11-17T23:16:33.102Z,91.60
2017-11-17T23:19:00.676Z,91.60
2017-11-17T23:21:28.290Z,91.50
2017-11-17T23:23:55.843Z,91.40
2017-11-17T23:26:23.435Z,91.70
2017-11-17T23:28:51.031Z,91.70
2017-11-17T23:31:19.375Z,91.80
2017-11-17T23:33:46.921Z,91.80
2017-11-17T23:36:14.499Z,91.60
2017-11-17T23:38:42.083Z,91.50
2017-11-17T23:41:10.409Z,91.70
2017-11-17T23:43:37.977Z,91.70
2017-11-17T23:46:05.525Z,91.60
2017-11-17T23:48:33.096Z,91.60
2017-11-17T23:51:00.688Z,91.60
2017-11-17T23:53:28.259Z,91.60
2017-11-17T23:55:56.581Z,91.60
2017-11-17T23:58:24.165Z,91.60
